sensor_id;sensor_type;location;lat;lon;timestamp;temperature;humidity
68385;DHT22;55336;43.062;25.626;2023-04-03T00:00:13;3.60;99.90
68385;DHT22;55336;43.062;25.626;2023-04-03T00:02:39;3.70;99.90
68385;DHT22;55336;43.062;25.626;2023-04-03T00:05:06;3.70;99.90
68385;DHT22;55336;43.062;25.626;2023-04-03T00:07:32;3.60;99.90
68385;DHT22;55336;43.062;25.626;2023-04-03T00:09:57;3.60;99.90
68385;DHT22;55336;43.062;25.626;2023-04-03T00:12:23;3.50;99.90
68385;DHT22;55336;43.062;25.626;2023-04-03T00:14:49;3.50;99.90
68385;DHT22;55336;43.062;25.626;2023-04-03T00:17:15;3.50;99.90
68385;DHT22;55336;43.062;25.626;2023-04-03T00:19:40;3.50;99.90
68385;DHT22;55336;43.062;25.626;2023-04-03T00:22:06;3.40;99.90
68385;DHT22;55336;43.062;25.626;2023-04-03T00:24:32;3.40;99.90
68385;DHT22;55336;43.062;25.626;2023-04-03T00:26:57;3.40;99.90
68385;DHT22;55336;43.062;25.626;2023-04-03T00:29:23;3.40;99.90
68385;DHT22;55336;43.062;25.626;2023-04-03T00:31:49;3.30;99.90
68385;DHT22;55336;43.062;25.626;2023-04-03T00:34:15;3.30;99.90
68385;DHT22;55336;43.062;25.626;2023-04-03T00:36:40;3.30;99.90
68385;DHT22;55336;43.062;25.626;2023-04-03T00:39:06;3.40;99.90
68385;DHT22;55336;43.062;25.626;2023-04-03T00:41:32;3.30;99.90
68385;DHT22;55336;43.062;25.626;2023-04-03T00:43:58;3.40;99.90
68385;DHT22;55336;43.062;25.626;2023-04-03T00:46:23;3.40;99.90
68385;DHT22;55336;43.062;25.626;2023-04-03T00:48:49;3.30;99.90
68385;DHT22;55336;43.062;25.626;2023-04-03T00:51:20;3.20;99.90
68385;DHT22;55336;43.062;25.626;2023-04-03T00:53:50;3.20;99.90
68385;DHT22;55336;43.062;25.626;2023-04-03T00:56:16;3.20;99.90
68385;DHT22;55336;43.062;25.626;2023-04-03T00:58:48;3.10;99.90
68385;DHT22;55336;43.062;25.626;2023-04-03T01:01:15;3.10;99.90
68385;DHT22;55336;43.062;25.626;2023-04-03T01:03:42;3.00;99.90
68385;DHT22;55336;43.062;25.626;2023-04-03T01:06:08;3.20;99.90
68385;DHT22;55336;43.062;25.626;2023-04-03T01:08:33;3.10;99.90
68385;DHT22;55336;43.062;25.626;2023-04-03T01:11:00;3.10;99.90
68385;DHT22;55336;43.062;25.626;2023-04-03T01:13:27;3.00;99.90
68385;DHT22;55336;43.062;25.626;2023-04-03T01:15:53;3.00;99.90
68385;DHT22;55336;43.062;25.626;2023-04-03T01:18:19;3.00;99.90
68385;DHT22;55336;43.062;25.626;2023-04-03T01:26:05;2.90;99.90
68385;DHT22;55336;43.062;25.626;2023-04-03T01:28:32;3.00;99.90
68385;DHT22;55336;43.062;25.626;2023-04-03T01:33:42;2.80;99.90
68385;DHT22;55336;43.062;25.626;2023-04-03T01:36:08;2.80;99.90
68385;DHT22;55336;43.062;25.626;2023-04-03T01:38:34;2.70;99.90
68385;DHT22;55336;43.062;25.626;2023-04-03T01:41:00;2.70;99.90
68385;DHT22;55336;43.062;25.626;2023-04-03T01:43:26;2.70;99.90
68385;DHT22;55336;43.062;25.626;2023-04-03T01:45:52;2.70;99.90
68385;DHT22;55336;43.062;25.626;2023-04-03T01:48:20;2.60;99.90
68385;DHT22;55336;43.062;25.626;2023-04-03T01:50:45;2.60;99.90
68385;DHT22;55336;43.062;25.626;2023-04-03T01:53:12;2.70;99.90
68385;DHT22;55336;43.062;25.626;2023-04-03T01:55:38;2.70;99.90
68385;DHT22;55336;43.062;25.626;2023-04-03T01:58:04;2.60;99.90
68385;DHT22;55336;43.062;25.626;2023-04-03T02:00:29;2.60;99.90
68385;DHT22;55336;43.062;25.626;2023-04-03T02:02:56;2.70;99.90
68385;DHT22;55336;43.062;25.626;2023-04-03T02:05:22;2.70;99.90
68385;DHT22;55336;43.062;25.626;2023-04-03T02:07:48;2.70;99.90
68385;DHT22;55336;43.062;25.626;2023-04-03T02:10:13;2.70;99.90
68385;DHT22;55336;43.062;25.626;2023-04-03T02:12:39;2.60;99.90
68385;DHT22;55336;43.062;25.626;2023-04-03T02:15:05;2.60;99.90
68385;DHT22;55336;43.062;25.626;2023-04-03T02:17:31;2.60;99.90
68385;DHT22;55336;43.062;25.626;2023-04-03T02:19:57;2.50;99.90
68385;DHT22;55336;43.062;25.626;2023-04-03T02:22:23;2.50;99.90
68385;DHT22;55336;43.062;25.626;2023-04-03T02:24:48;2.50;99.90
68385;DHT22;55336;43.062;25.626;2023-04-03T02:27:15;2.50;99.90
68385;DHT22;55336;43.062;25.626;2023-04-03T02:29:41;2.40;99.90
68385;DHT22;55336;43.062;25.626;2023-04-03T02:32:06;2.40;99.90
68385;DHT22;55336;43.062;25.626;2023-04-03T02:34:32;2.30;99.90
68385;DHT22;55336;43.062;25.626;2023-04-03T02:36:58;2.30;99.90
68385;DHT22;55336;43.062;25.626;2023-04-03T02:39:24;2.40;99.90
68385;DHT22;55336;43.062;25.626;2023-04-03T02:41:49;2.30;99.90
68385;DHT22;55336;43.062;25.626;2023-04-03T02:44:15;2.20;99.90
68385;DHT22;55336;43.062;25.626;2023-04-03T02:46:40;2.20;99.90
68385;DHT22;55336;43.062;25.626;2023-04-03T02:49:06;2.30;99.90
68385;DHT22;55336;43.062;25.626;2023-04-03T02:51:32;2.20;99.90
68385;DHT22;55336;43.062;25.626;2023-04-03T02:53:58;2.20;99.90
68385;DHT22;55336;43.062;25.626;2023-04-03T02:56:23;2.20;99.90
68385;DHT22;55336;43.062;25.626;2023-04-03T02:58:50;2.30;99.90
68385;DHT22;55336;43.062;25.626;2023-04-03T03:01:15;2.20;99.90
68385;DHT22;55336;43.062;25.626;2023-04-03T03:03:41;2.10;99.90
68385;DHT22;55336;43.062;25.626;2023-04-03T03:06:08;2.10;99.90
68385;DHT22;55336;43.062;25.626;2023-04-03T03:08:33;2.30;99.90
68385;DHT22;55336;43.062;25.626;2023-04-03T03:10:59;2.10;99.90
68385;DHT22;55336;43.062;25.626;2023-04-03T03:13:25;2.10;99.90
68385;DHT22;55336;43.062;25.626;2023-04-03T03:15:51;2.10;99.90
68385;DHT22;55336;43.062;25.626;2023-04-03T03:18:17;2.00;99.90
68385;DHT22;55336;43.062;25.626;2023-04-03T03:20:42;2.00;99.90
68385;DHT22;55336;43.062;25.626;2023-04-03T03:23:08;2.00;99.90
68385;DHT22;55336;43.062;25.626;2023-04-03T03:25:38;2.00;99.90
68385;DHT22;55336;43.062;25.626;2023-04-03T03:28:04;2.00;99.90
68385;DHT22;55336;43.062;25.626;2023-04-03T03:30:30;2.00;99.90
68385;DHT22;55336;43.062;25.626;2023-04-03T03:32:55;2.00;99.90
68385;DHT22;55336;43.062;25.626;2023-04-03T03:35:21;2.10;99.90
68385;DHT22;55336;43.062;25.626;2023-04-03T03:37:47;2.00;99.90
68385;DHT22;55336;43.062;25.626;2023-04-03T03:40:12;2.10;99.90
68385;DHT22;55336;43.062;25.626;2023-04-03T03:42:38;2.10;99.90
68385;DHT22;55336;43.062;25.626;2023-04-03T03:45:04;2.10;99.90
68385;DHT22;55336;43.062;25.626;2023-04-03T03:47:30;2.10;99.90
68385;DHT22;55336;43.062;25.626;2023-04-03T03:49:56;2.10;99.90
68385;DHT22;55336;43.062;25.626;2023-04-03T03:52:22;2.10;99.90
68385;DHT22;55336;43.062;25.626;2023-04-03T03:54:48;2.00;99.90
68385;DHT22;55336;43.062;25.626;2023-04-03T03:57:13;2.00;99.90
68385;DHT22;55336;43.062;25.626;2023-04-03T03:59:40;2.00;99.90
68385;DHT22;55336;43.062;25.626;2023-04-03T04:02:07;2.00;99.90
68385;DHT22;55336;43.062;25.626;2023-04-03T04:04:33;2.00;99.90
68385;DHT22;55336;43.062;25.626;2023-04-03T04:06:58;2.00;99.90
68385;DHT22;55336;43.062;25.626;2023-04-03T04:09:26;2.00;99.90
68385;DHT22;55336;43.062;25.626;2023-04-03T04:11:51;2.00;99.90
68385;DHT22;55336;43.062;25.626;2023-04-03T04:14:17;2.00;99.90
68385;DHT22;55336;43.062;25.626;2023-04-03T04:16:43;2.00;99.90
68385;DHT22;55336;43.062;25.626;2023-04-03T04:19:09;2.00;99.90
68385;DHT22;55336;43.062;25.626;2023-04-03T04:21:35;2.10;99.90
68385;DHT22;55336;43.062;25.626;2023-04-03T04:24:01;2.10;99.90
68385;DHT22;55336;43.062;25.626;2023-04-03T04:26:26;2.20;99.90
68385;DHT22;55336;43.062;25.626;2023-04-03T04:28:52;2.50;99.90
68385;DHT22;55336;43.062;25.626;2023-04-03T04:31:18;2.20;99.90
68385;DHT22;55336;43.062;25.626;2023-04-03T04:33:44;2.30;99.90
68385;DHT22;55336;43.062;25.626;2023-04-03T04:36:09;2.40;99.90
68385;DHT22;55336;43.062;25.626;2023-04-03T04:38:35;2.50;99.90
68385;DHT22;55336;43.062;25.626;2023-04-03T04:41:01;2.60;99.90
68385;DHT22;55336;43.062;25.626;2023-04-03T04:43:27;2.70;99.90
68385;DHT22;55336;43.062;25.626;2023-04-03T04:46:06;2.90;99.90
68385;DHT22;55336;43.062;25.626;2023-04-03T04:48:32;3.10;99.90
68385;DHT22;55336;43.062;25.626;2023-04-03T04:50:58;3.40;99.90
68385;DHT22;55336;43.062;25.626;2023-04-03T04:53:24;3.50;99.90
68385;DHT22;55336;43.062;25.626;2023-04-03T04:55:50;3.50;99.90
68385;DHT22;55336;43.062;25.626;2023-04-03T04:58:16;3.60;99.90
68385;DHT22;55336;43.062;25.626;2023-04-03T05:00:42;3.80;99.90
68385;DHT22;55336;43.062;25.626;2023-04-03T05:03:07;3.80;99.90
68385;DHT22;55336;43.062;25.626;2023-04-03T05:05:33;4.00;99.90
68385;DHT22;55336;43.062;25.626;2023-04-03T05:07:59;4.20;99.90
68385;DHT22;55336;43.062;25.626;2023-04-03T05:10:25;4.30;99.90
68385;DHT22;55336;43.062;25.626;2023-04-03T05:12:50;4.30;99.90
68385;DHT22;55336;43.062;25.626;2023-04-03T05:15:16;4.20;99.90
68385;DHT22;55336;43.062;25.626;2023-04-03T05:17:42;4.30;99.90
68385;DHT22;55336;43.062;25.626;2023-04-03T05:20:08;4.40;99.90
68385;DHT22;55336;43.062;25.626;2023-04-03T05:22:34;4.30;99.90
68385;DHT22;55336;43.062;25.626;2023-04-03T05:25:00;4.40;99.90
68385;DHT22;55336;43.062;25.626;2023-04-03T05:27:28;4.70;99.90
68385;DHT22;55336;43.062;25.626;2023-04-03T05:29:54;4.90;99.90
68385;DHT22;55336;43.062;25.626;2023-04-03T05:32:20;5.00;99.90
68385;DHT22;55336;43.062;25.626;2023-04-03T05:34:46;5.20;99.90
68385;DHT22;55336;43.062;25.626;2023-04-03T05:37:12;5.30;99.90
68385;DHT22;55336;43.062;25.626;2023-04-03T05:39:38;5.50;99.90
68385;DHT22;55336;43.062;25.626;2023-04-03T05:42:06;5.70;99.90
68385;DHT22;55336;43.062;25.626;2023-04-03T05:44:32;6.00;99.90
68385;DHT22;55336;43.062;25.626;2023-04-03T05:46:58;6.40;99.90
68385;DHT22;55336;43.062;25.626;2023-04-03T05:49:24;6.70;99.90
68385;DHT22;55336;43.062;25.626;2023-04-03T05:51:50;6.60;99.90
68385;DHT22;55336;43.062;25.626;2023-04-03T05:56:43;7.20;99.90
68385;DHT22;55336;43.062;25.626;2023-04-03T05:59:08;7.70;99.90
68385;DHT22;55336;43.062;25.626;2023-04-03T06:01:34;8.10;99.90
68385;DHT22;55336;43.062;25.626;2023-04-03T06:04:00;8.50;99.90
68385;DHT22;55336;43.062;25.626;2023-04-03T06:06:42;8.80;99.90
68385;DHT22;55336;43.062;25.626;2023-04-03T06:09:07;9.30;99.90
68385;DHT22;55336;43.062;25.626;2023-04-03T06:11:33;9.50;99.90
68385;DHT22;55336;43.062;25.626;2023-04-03T06:14:00;9.80;99.90
68385;DHT22;55336;43.062;25.626;2023-04-03T06:16:26;10.00;99.90
68385;DHT22;55336;43.062;25.626;2023-04-03T06:18:52;10.00;99.90
68385;DHT22;55336;43.062;25.626;2023-04-03T06:21:18;10.00;99.90
68385;DHT22;55336;43.062;25.626;2023-04-03T06:23:43;10.00;99.90
68385;DHT22;55336;43.062;25.626;2023-04-03T06:26:09;10.30;99.90
68385;DHT22;55336;43.062;25.626;2023-04-03T06:28:35;10.30;99.90
68385;DHT22;55336;43.062;25.626;2023-04-03T06:31:01;10.30;99.90
68385;DHT22;55336;43.062;25.626;2023-04-03T06:33:27;10.50;99.90
68385;DHT22;55336;43.062;25.626;2023-04-03T06:35:57;10.60;99.90
68385;DHT22;55336;43.062;25.626;2023-04-03T06:38:23;10.70;99.90
68385;DHT22;55336;43.062;25.626;2023-04-03T06:40:49;11.10;99.90
68385;DHT22;55336;43.062;25.626;2023-04-03T06:43:17;11.60;99.90
68385;DHT22;55336;43.062;25.626;2023-04-03T06:45:42;11.90;99.90
68385;DHT22;55336;43.062;25.626;2023-04-03T06:48:08;12.00;99.90
68385;DHT22;55336;43.062;25.626;2023-04-03T06:50:34;12.00;99.90
68385;DHT22;55336;43.062;25.626;2023-04-03T06:53:00;12.10;99.90
68385;DHT22;55336;43.062;25.626;2023-04-03T06:55:26;12.20;99.90
68385;DHT22;55336;43.062;25.626;2023-04-03T06:57:52;12.50;99.90
68385;DHT22;55336;43.062;25.626;2023-04-03T07:00:17;12.90;99.90
68385;DHT22;55336;43.062;25.626;2023-04-03T07:02:43;13.30;99.90
68385;DHT22;55336;43.062;25.626;2023-04-03T07:05:09;13.60;99.90
68385;DHT22;55336;43.062;25.626;2023-04-03T07:07:35;13.60;99.90
68385;DHT22;55336;43.062;25.626;2023-04-03T07:10:01;13.50;99.90
68385;DHT22;55336;43.062;25.626;2023-04-03T07:12:27;13.70;99.90
68385;DHT22;55336;43.062;25.626;2023-04-03T07:14:52;13.80;99.90
68385;DHT22;55336;43.062;25.626;2023-04-03T07:17:18;13.90;99.90
68385;DHT22;55336;43.062;25.626;2023-04-03T07:19:44;14.20;99.90
68385;DHT22;55336;43.062;25.626;2023-04-03T07:22:11;14.60;99.90
68385;DHT22;55336;43.062;25.626;2023-04-03T07:24:37;14.70;99.90
68385;DHT22;55336;43.062;25.626;2023-04-03T07:27:02;14.90;99.90
68385;DHT22;55336;43.062;25.626;2023-04-03T07:29:28;15.00;99.90
68385;DHT22;55336;43.062;25.626;2023-04-03T07:31:55;15.10;99.90
68385;DHT22;55336;43.062;25.626;2023-04-03T07:34:21;15.20;97.60
68385;DHT22;55336;43.062;25.626;2023-04-03T07:36:47;15.50;96.20
68385;DHT22;55336;43.062;25.626;2023-04-03T07:39:12;15.90;95.40
68385;DHT22;55336;43.062;25.626;2023-04-03T07:41:38;16.10;90.00
68385;DHT22;55336;43.062;25.626;2023-04-03T07:44:04;16.60;87.40
68385;DHT22;55336;43.062;25.626;2023-04-03T07:46:31;16.90;86.70
68385;DHT22;55336;43.062;25.626;2023-04-03T07:48:59;17.20;82.50
68385;DHT22;55336;43.062;25.626;2023-04-03T07:51:25;17.40;79.20
68385;DHT22;55336;43.062;25.626;2023-04-03T07:53:52;18.00;73.90
68385;DHT22;55336;43.062;25.626;2023-04-03T07:56:17;18.30;70.30
68385;DHT22;55336;43.062;25.626;2023-04-03T07:58:43;18.50;70.70
68385;DHT22;55336;43.062;25.626;2023-04-03T08:01:10;18.60;66.00
68385;DHT22;55336;43.062;25.626;2023-04-03T08:03:36;18.70;64.70
68385;DHT22;55336;43.062;25.626;2023-04-03T08:06:03;18.70;66.30
68385;DHT22;55336;43.062;25.626;2023-04-03T08:08:29;18.90;65.40
68385;DHT22;55336;43.062;25.626;2023-04-03T08:10:57;18.90;62.50
68385;DHT22;55336;43.062;25.626;2023-04-03T08:13:23;18.70;60.70
68385;DHT22;55336;43.062;25.626;2023-04-03T08:15:52;18.80;59.50
68385;DHT22;55336;43.062;25.626;2023-04-03T08:18:18;19.00;59.50
68385;DHT22;55336;43.062;25.626;2023-04-03T08:20:47;19.30;58.00
68385;DHT22;55336;43.062;25.626;2023-04-03T08:23:12;19.10;58.40
68385;DHT22;55336;43.062;25.626;2023-04-03T08:25:40;19.10;58.20
68385;DHT22;55336;43.062;25.626;2023-04-03T08:28:06;19.20;56.90
68385;DHT22;55336;43.062;25.626;2023-04-03T08:30:32;19.10;56.10
68385;DHT22;55336;43.062;25.626;2023-04-03T08:33:00;18.70;57.60
68385;DHT22;55336;43.062;25.626;2023-04-03T08:35:26;18.50;57.70
68385;DHT22;55336;43.062;25.626;2023-04-03T08:37:52;18.40;57.10
68385;DHT22;55336;43.062;25.626;2023-04-03T08:40:18;18.50;56.80
68385;DHT22;55336;43.062;25.626;2023-04-03T08:45:48;18.50;58.50
68385;DHT22;55336;43.062;25.626;2023-04-03T08:48:06;18.60;56.70
68385;DHT22;55336;43.062;25.626;2023-04-03T08:50:37;18.70;57.00
68385;DHT22;55336;43.062;25.626;2023-04-03T08:53:05;18.70;56.50
68385;DHT22;55336;43.062;25.626;2023-04-03T08:55:39;18.80;56.60
68385;DHT22;55336;43.062;25.626;2023-04-03T08:58:18;18.60;56.20
68385;DHT22;55336;43.062;25.626;2023-04-03T09:00:55;18.60;56.90
68385;DHT22;55336;43.062;25.626;2023-04-03T09:03:23;18.50;56.40
68385;DHT22;55336;43.062;25.626;2023-04-03T09:06:00;18.60;56.90
68385;DHT22;55336;43.062;25.626;2023-04-03T09:08:31;18.80;56.20
68385;DHT22;55336;43.062;25.626;2023-04-03T09:11:00;18.80;56.60
68385;DHT22;55336;43.062;25.626;2023-04-03T09:16:47;19.00;56.00
68385;DHT22;55336;43.062;25.626;2023-04-03T09:19:07;19.10;56.30
68385;DHT22;55336;43.062;25.626;2023-04-03T09:21:38;19.20;54.70
68385;DHT22;55336;43.062;25.626;2023-04-03T09:24:08;19.20;55.30
68385;DHT22;55336;43.062;25.626;2023-04-03T09:26:57;19.50;54.80
68385;DHT22;55336;43.062;25.626;2023-04-03T09:29:22;19.60;56.20
68385;DHT22;55336;43.062;25.626;2023-04-03T09:31:52;19.90;53.40
68385;DHT22;55336;43.062;25.626;2023-04-03T09:34:27;19.00;54.00
68385;DHT22;55336;43.062;25.626;2023-04-03T09:36:54;18.90;58.30
68385;DHT22;55336;43.062;25.626;2023-04-03T09:39:27;19.50;54.70
68385;DHT22;55336;43.062;25.626;2023-04-03T09:42:01;18.80;57.70
68385;DHT22;55336;43.062;25.626;2023-04-03T09:44:37;18.80;59.70
68385;DHT22;55336;43.062;25.626;2023-04-03T09:47:17;19.40;57.00
68385;DHT22;55336;43.062;25.626;2023-04-03T09:49:43;20.20;55.70
68385;DHT22;55336;43.062;25.626;2023-04-03T09:52:25;20.10;52.50
68385;DHT22;55336;43.062;25.626;2023-04-03T09:54:50;20.20;53.00
68385;DHT22;55336;43.062;25.626;2023-04-03T09:57:16;20.40;52.60
68385;DHT22;55336;43.062;25.626;2023-04-03T09:59:58;21.00;52.70
68385;DHT22;55336;43.062;25.626;2023-04-03T10:02:36;21.20;50.10
68385;DHT22;55336;43.062;25.626;2023-04-03T10:05:04;21.00;51.60
68385;DHT22;55336;43.062;25.626;2023-04-03T10:07:36;21.00;51.30
68385;DHT22;55336;43.062;25.626;2023-04-03T10:10:23;20.60;52.00
68385;DHT22;55336;43.062;25.626;2023-04-03T10:13:07;20.70;52.10
68385;DHT22;55336;43.062;25.626;2023-04-03T10:15:35;20.50;53.80
68385;DHT22;55336;43.062;25.626;2023-04-03T10:18:02;20.30;52.60
68385;DHT22;55336;43.062;25.626;2023-04-03T10:33:45;21.30;51.20
68385;DHT22;55336;43.062;25.626;2023-04-03T10:36:17;21.20;50.30
68385;DHT22;55336;43.062;25.626;2023-04-03T10:39:00;21.10;50.30
68385;DHT22;55336;43.062;25.626;2023-04-03T10:46:31;20.30;51.00
68385;DHT22;55336;43.062;25.626;2023-04-03T10:49:22;19.30;54.90
68385;DHT22;55336;43.062;25.626;2023-04-03T10:51:45;19.20;54.70
68385;DHT22;55336;43.062;25.626;2023-04-03T10:54:13;19.80;55.20
68385;DHT22;55336;43.062;25.626;2023-04-03T10:56:42;19.90;52.60
68385;DHT22;55336;43.062;25.626;2023-04-03T10:59:23;20.00;54.90
68385;DHT22;55336;43.062;25.626;2023-04-03T11:01:55;19.70;52.50
68385;DHT22;55336;43.062;25.626;2023-04-03T11:04:21;19.40;52.80
68385;DHT22;55336;43.062;25.626;2023-04-03T11:06:51;19.40;53.00
68385;DHT22;55336;43.062;25.626;2023-04-03T11:09:23;19.40;53.60
68385;DHT22;55336;43.062;25.626;2023-04-03T11:11:51;19.50;54.70
68385;DHT22;55336;43.062;25.626;2023-04-03T11:16:58;19.50;53.00
68385;DHT22;55336;43.062;25.626;2023-04-03T11:19:29;19.30;53.60
68385;DHT22;55336;43.062;25.626;2023-04-03T11:21:56;19.30;53.70
68385;DHT22;55336;43.062;25.626;2023-04-03T11:24:27;19.30;53.30
68385;DHT22;55336;43.062;25.626;2023-04-03T11:26:54;19.20;53.20
68385;DHT22;55336;43.062;25.626;2023-04-03T11:29:22;19.50;52.30
68385;DHT22;55336;43.062;25.626;2023-04-03T11:36:51;19.20;50.10
68385;DHT22;55336;43.062;25.626;2023-04-03T11:41:48;19.20;51.70
68385;DHT22;55336;43.062;25.626;2023-04-03T11:46:59;19.30;52.80
68385;DHT22;55336;43.062;25.626;2023-04-03T11:52:10;19.40;54.00
68385;DHT22;55336;43.062;25.626;2023-04-03T11:54:46;19.20;54.20
68385;DHT22;55336;43.062;25.626;2023-04-03T12:03:01;18.60;55.40
68385;DHT22;55336;43.062;25.626;2023-04-03T12:05:27;18.30;55.90
68385;DHT22;55336;43.062;25.626;2023-04-03T12:10:39;17.90;56.80
68385;DHT22;55336;43.062;25.626;2023-04-03T12:13:14;17.80;56.00
68385;DHT22;55336;43.062;25.626;2023-04-03T12:23:28;17.80;56.50
68385;DHT22;55336;43.062;25.626;2023-04-03T12:25:59;17.90;56.90
68385;DHT22;55336;43.062;25.626;2023-04-03T12:28:26;17.90;56.30
68385;DHT22;55336;43.062;25.626;2023-04-03T12:30:53;17.90;56.30
68385;DHT22;55336;43.062;25.626;2023-04-03T12:35:58;17.90;56.80
68385;DHT22;55336;43.062;25.626;2023-04-03T12:43:59;18.20;57.90
68385;DHT22;55336;43.062;25.626;2023-04-03T12:46:28;18.20;58.00
68385;DHT22;55336;43.062;25.626;2023-04-03T12:48:59;18.50;56.80
68385;DHT22;55336;43.062;25.626;2023-04-03T12:51:35;18.60;56.60
68385;DHT22;55336;43.062;25.626;2023-04-03T12:54:13;18.70;55.80
68385;DHT22;55336;43.062;25.626;2023-04-03T12:56:43;18.50;56.20
68385;DHT22;55336;43.062;25.626;2023-04-03T12:59:16;18.30;56.40
68385;DHT22;55336;43.062;25.626;2023-04-03T13:01:42;17.70;57.70
68385;DHT22;55336;43.062;25.626;2023-04-03T13:04:09;17.70;59.10
68385;DHT22;55336;43.062;25.626;2023-04-03T13:06:43;17.70;58.60
68385;DHT22;55336;43.062;25.626;2023-04-03T13:09:20;17.60;59.10
68385;DHT22;55336;43.062;25.626;2023-04-03T13:11:47;17.50;58.00
68385;DHT22;55336;43.062;25.626;2023-04-03T13:14:15;17.40;57.90
68385;DHT22;55336;43.062;25.626;2023-04-03T13:16:41;17.40;57.90
68385;DHT22;55336;43.062;25.626;2023-04-03T13:19:14;17.30;59.70
68385;DHT22;55336;43.062;25.626;2023-04-03T13:21:40;17.20;60.80
68385;DHT22;55336;43.062;25.626;2023-04-03T13:24:06;17.10;62.90
68385;DHT22;55336;43.062;25.626;2023-04-03T13:26:33;17.00;63.30
68385;DHT22;55336;43.062;25.626;2023-04-03T13:29:02;16.90;64.30
68385;DHT22;55336;43.062;25.626;2023-04-03T13:31:32;16.90;66.70
68385;DHT22;55336;43.062;25.626;2023-04-03T13:36:35;16.60;69.70
68385;DHT22;55336;43.062;25.626;2023-04-03T13:41:37;16.30;72.00
68385;DHT22;55336;43.062;25.626;2023-04-03T13:46:51;16.00;78.40
68385;DHT22;55336;43.062;25.626;2023-04-03T13:49:39;15.90;82.90
68385;DHT22;55336;43.062;25.626;2023-04-03T13:52:21;15.70;89.90
68385;DHT22;55336;43.062;25.626;2023-04-03T13:54:58;15.60;95.70
68385;DHT22;55336;43.062;25.626;2023-04-03T13:57:25;15.50;97.20
68385;DHT22;55336;43.062;25.626;2023-04-03T13:59:51;15.40;99.90
68385;DHT22;55336;43.062;25.626;2023-04-03T14:04:47;15.40;99.90
68385;DHT22;55336;43.062;25.626;2023-04-03T14:07:14;15.40;99.90
68385;DHT22;55336;43.062;25.626;2023-04-03T14:09:40;15.30;99.90
68385;DHT22;55336;43.062;25.626;2023-04-03T14:12:07;15.30;99.90
68385;DHT22;55336;43.062;25.626;2023-04-03T14:14:34;15.30;99.90
68385;DHT22;55336;43.062;25.626;2023-04-03T14:17:02;15.10;99.90
68385;DHT22;55336;43.062;25.626;2023-04-03T14:19:32;15.10;99.90
68385;DHT22;55336;43.062;25.626;2023-04-03T14:21:58;15.00;99.90
68385;DHT22;55336;43.062;25.626;2023-04-03T14:24:25;14.90;99.90
68385;DHT22;55336;43.062;25.626;2023-04-03T14:26:53;14.90;99.90
68385;DHT22;55336;43.062;25.626;2023-04-03T14:29:20;14.80;99.90
68385;DHT22;55336;43.062;25.626;2023-04-03T14:31:47;14.70;99.90
68385;DHT22;55336;43.062;25.626;2023-04-03T14:34:13;14.60;99.90
68385;DHT22;55336;43.062;25.626;2023-04-03T14:36:40;14.50;99.90
68385;DHT22;55336;43.062;25.626;2023-04-03T14:39:07;14.40;99.90
68385;DHT22;55336;43.062;25.626;2023-04-03T14:41:34;14.30;99.90
68385;DHT22;55336;43.062;25.626;2023-04-03T14:44:00;14.20;99.90
68385;DHT22;55336;43.062;25.626;2023-04-03T14:46:28;14.10;99.90
68385;DHT22;55336;43.062;25.626;2023-04-03T14:48:54;14.10;99.90
68385;DHT22;55336;43.062;25.626;2023-04-03T14:51:20;14.00;99.90
68385;DHT22;55336;43.062;25.626;2023-04-03T14:53:46;13.90;99.90
68385;DHT22;55336;43.062;25.626;2023-04-03T14:56:17;13.80;99.90
68385;DHT22;55336;43.062;25.626;2023-04-03T14:58:43;13.70;99.90
68385;DHT22;55336;43.062;25.626;2023-04-03T15:01:10;13.60;99.90
68385;DHT22;55336;43.062;25.626;2023-04-03T15:03:36;13.50;99.90
68385;DHT22;55336;43.062;25.626;2023-04-03T15:06:02;13.40;99.90
68385;DHT22;55336;43.062;25.626;2023-04-03T15:08:28;13.30;99.90
68385;DHT22;55336;43.062;25.626;2023-04-03T15:10:57;13.20;99.90
68385;DHT22;55336;43.062;25.626;2023-04-03T15:13:23;13.20;99.90
68385;DHT22;55336;43.062;25.626;2023-04-03T15:15:49;13.10;99.90
68385;DHT22;55336;43.062;25.626;2023-04-03T15:18:17;13.00;99.90
68385;DHT22;55336;43.062;25.626;2023-04-03T15:20:43;12.90;99.90
68385;DHT22;55336;43.062;25.626;2023-04-03T15:23:10;12.90;99.90
68385;DHT22;55336;43.062;25.626;2023-04-03T15:25:36;12.80;99.90
68385;DHT22;55336;43.062;25.626;2023-04-03T15:28:01;12.70;99.90
68385;DHT22;55336;43.062;25.626;2023-04-03T15:30:27;12.70;99.90
68385;DHT22;55336;43.062;25.626;2023-04-03T15:32:53;12.70;99.90
68385;DHT22;55336;43.062;25.626;2023-04-03T15:35:19;12.50;99.90
68385;DHT22;55336;43.062;25.626;2023-04-03T15:37:45;12.40;99.90
68385;DHT22;55336;43.062;25.626;2023-04-03T15:40:10;12.40;99.90
68385;DHT22;55336;43.062;25.626;2023-04-03T15:42:37;12.40;99.90
68385;DHT22;55336;43.062;25.626;2023-04-03T15:45:02;12.30;99.90
68385;DHT22;55336;43.062;25.626;2023-04-03T15:47:28;12.30;99.90
68385;DHT22;55336;43.062;25.626;2023-04-03T15:49:54;12.20;99.90
68385;DHT22;55336;43.062;25.626;2023-04-03T15:52:20;12.10;99.90
68385;DHT22;55336;43.062;25.626;2023-04-03T15:54:46;12.10;99.90
68385;DHT22;55336;43.062;25.626;2023-04-03T15:57:12;12.10;99.90
68385;DHT22;55336;43.062;25.626;2023-04-03T15:59:38;12.10;99.90
68385;DHT22;55336;43.062;25.626;2023-04-03T16:02:04;12.10;99.90
68385;DHT22;55336;43.062;25.626;2023-04-03T16:04:30;12.00;99.90
68385;DHT22;55336;43.062;25.626;2023-04-03T16:06:56;12.00;99.90
68385;DHT22;55336;43.062;25.626;2023-04-03T16:09:22;12.00;99.90
68385;DHT22;55336;43.062;25.626;2023-04-03T16:11:48;12.00;99.90
68385;DHT22;55336;43.062;25.626;2023-04-03T16:14:14;11.90;99.90
68385;DHT22;55336;43.062;25.626;2023-04-03T16:16:40;11.90;99.90
68385;DHT22;55336;43.062;25.626;2023-04-03T16:19:05;11.90;99.90
68385;DHT22;55336;43.062;25.626;2023-04-03T16:21:32;11.80;99.90
68385;DHT22;55336;43.062;25.626;2023-04-03T16:23:58;11.80;99.90
68385;DHT22;55336;43.062;25.626;2023-04-03T16:26:24;11.80;99.90
68385;DHT22;55336;43.062;25.626;2023-04-03T16:28:51;11.80;99.90
68385;DHT22;55336;43.062;25.626;2023-04-03T16:31:16;11.70;99.90
68385;DHT22;55336;43.062;25.626;2023-04-03T16:33:42;11.70;99.90
68385;DHT22;55336;43.062;25.626;2023-04-03T16:36:08;11.70;99.90
68385;DHT22;55336;43.062;25.626;2023-04-03T16:38:34;11.60;99.90
68385;DHT22;55336;43.062;25.626;2023-04-03T16:41:00;11.60;99.90
68385;DHT22;55336;43.062;25.626;2023-04-03T16:43:33;11.60;99.90
68385;DHT22;55336;43.062;25.626;2023-04-03T16:45:59;11.50;99.90
68385;DHT22;55336;43.062;25.626;2023-04-03T16:48:27;11.50;99.90